Time;durP1;ratioP1;P1;durP2;ratioP2;P2;SDS_P1;SDS_P2;PMS_P1;PMS_P2;Temp;Humidity;BMP_temperature;BMP_pressure;BME280_temperature;BME280_humidity;BME280_pressure;Samples;Min_cycle;Max_cycle;Signal;HPM_P1;HPM_P2
2023/03/16 00:00:41;;;;;;;;;;;;;;;21.02;42.29;100845.28;7263329;19;154227;-53
2023/03/16 00:03:09;;;;;;;;;;;;;;;21.00;41.98;100839.16;7260803;19;153201;-54
2023/03/16 00:05:36;;;;;;;;;;;;;;;20.99;41.83;100842.25;7257175;19;154368;-54
2023/03/16 00:08:04;;;;;;;;;;;;;;;20.85;40.27;100842.28;7260772;19;156592;-53
2023/03/16 00:10:31;;;;;;;;;;;;;;;20.55;40.71;100829.72;7258497;19;153556;-54
2023/03/16 00:12:58;;;;;;;;;;;;;;;20.59;41.21;100824.28;7262773;19;154184;-53
2023/03/16 00:15:25;;;;;;;;;;;;;;;20.68;41.11;100826.06;7260975;19;153605;-54
2023/03/16 00:17:52;;;;;;;;;;;;;;;20.71;41.32;100836.69;7252013;19;153086;-54
2023/03/16 00:20:19;;;;;;;;;;;;;;;20.73;41.30;100825.13;7251713;19;152755;-54
2023/03/16 00:22:45;;;;;;;;;;;;;;;20.74;41.47;100826.81;7267016;19;154189;-54
2023/03/16 00:25:13;;;;;;;;;;;;;;;20.73;41.53;100825.97;7260074;19;154225;-54
2023/03/16 00:27:40;;;;;;;;;;;;;;;20.75;41.82;100826.50;7261415;19;154805;-53
2023/03/16 00:30:07;;;;;;;;;;;;;;;20.74;42.05;100822.03;7261834;19;154435;-54
2023/03/16 00:32:35;;;;;;;;;;;;;;;20.75;42.14;100814.44;7258670;19;153644;-54
2023/03/16 00:35:03;;;;;;;;;;;;;;;20.75;42.02;100808.81;7259118;19;154557;-54
2023/03/16 00:37:33;;;;;;;;;;;;;;;20.75;41.91;100806.00;7259560;19;152677;-54
2023/03/16 00:40:00;;;;;;;;;;;;;;;20.73;42.22;100800.69;7257180;19;153392;-54
2023/03/16 00:42:28;;;;;;;;;;;;;;;20.73;42.14;100800.69;7269541;19;153939;-54
2023/03/16 00:44:56;;;;;;;;;;;;;;;20.74;42.25;100807.16;7254348;19;154976;-54
2023/03/16 00:47:27;;;;;;;;;;;;;;;20.72;42.33;100793.41;7260636;19;155010;-54
2023/03/16 00:49:54;;;;;;;;;;;;;;;20.71;42.28;100783.34;7260730;19;153291;-54
2023/03/16 00:52:22;;;;;;;;;;;;;;;20.70;42.12;100787.28;7259697;19;153994;-54
2023/03/16 00:54:52;;;;;;;;;;;;;;;20.69;42.05;100779.19;7257177;19;156197;-55
2023/03/16 00:57:20;;;;;;;;;;;;;;;20.67;42.48;100767.44;7260712;19;153404;-54
2023/03/16 00:59:47;;;;;;;;;;;;;;;20.66;42.48;100765.78;7260094;19;153488;-54
2023/03/16 01:02:16;;;;;;;;;;;;;;;20.63;42.50;100760.75;7259260;19;154483;-54
2023/03/16 01:04:42;;;;;;;;;;;;;;;20.59;43.08;100746.53;7266875;19;153450;-54
2023/03/16 01:07:11;;;;;;;;;;;;;;;20.61;42.95;100749.88;7260686;19;153889;-54
2023/03/16 01:09:39;;;;;;;;;;;;;;;20.55;43.06;100739.88;7253100;19;152845;-54
2023/03/16 01:12:07;;;;;;;;;;;;;;;20.54;43.13;100735.41;7261205;19;153758;-53
2023/03/16 01:14:35;;;;;;;;;;;;;;;20.52;42.91;100732.09;7261983;19;153343;-54
2023/03/16 01:17:01;;;;;;;;;;;;;;;20.55;43.30;100733.44;7260246;19;154649;-54
2023/03/16 01:19:32;;;;;;;;;;;;;;;20.50;42.31;100728.78;7254989;19;153592;-54
2023/03/16 01:22:00;;;;;;;;;;;;;;;20.44;42.05;100734.81;7255888;19;153521;-54
2023/03/16 01:24:27;;;;;;;;;;;;;;;20.37;42.47;100733.25;7256104;19;153376;-54
2023/03/16 01:26:54;;;;;;;;;;;;;;;20.35;42.28;100715.88;7267401;19;154557;-54
2023/03/16 01:29:21;;;;;;;;;;;;;;;20.32;42.32;100713.72;7258017;19;153408;-54
2023/03/16 01:31:49;;;;;;;;;;;;;;;20.30;42.15;100716.03;7259256;19;153856;-54
2023/03/16 01:34:17;;;;;;;;;;;;;;;20.26;42.20;100700.09;7256329;19;153377;-54
2023/03/16 01:36:46;;;;;;;;;;;;;;;20.21;42.01;100692.63;7261069;19;153993;-55
2023/03/16 01:39:14;;;;;;;;;;;;;;;20.20;41.91;100684.50;7243868;19;154517;-54
2023/03/16 01:41:43;;;;;;;;;;;;;;;20.14;42.42;100688.53;7260486;19;154225;-54
2023/03/16 01:44:12;;;;;;;;;;;;;;;20.09;42.17;100691.44;7258905;19;152815;-53
2023/03/16 01:46:40;;;;;;;;;;;;;;;20.04;42.05;100705.56;7260264;19;154120;-54
2023/03/16 01:49:11;;;;;;;;;;;;;;;20.01;42.07;100689.38;7259401;19;153950;-54
2023/03/16 01:51:51;;;;;;;;;;;;;;;19.94;42.33;100696.22;7259990;19;153525;-55
2023/03/16 01:54:27;;;;;;;;;;;;;;;19.95;42.25;100683.03;7256883;19;154627;-54
2023/03/16 01:57:05;;;;;;;;;;;;;;;19.89;42.59;100675.88;7257139;19;153374;-55
2023/03/16 01:59:36;;;;;;;;;;;;;;;19.86;42.38;100668.06;7258436;19;153143;-53
2023/03/16 02:02:04;;;;;;;;;;;;;;;19.83;42.66;100672.34;7256999;19;154047;-54
2023/03/16 02:04:35;;;;;;;;;;;;;;;19.81;42.49;100659.75;7257066;19;152953;-54
2023/03/16 02:07:04;;;;;;;;;;;;;;;19.77;42.60;100653.97;7258876;19;153981;-53
2023/03/16 02:09:32;;;;;;;;;;;;;;;19.76;42.53;100652.28;7255272;19;153453;-54
2023/03/16 02:12:00;;;;;;;;;;;;;;;19.76;42.59;100652.28;7263497;19;153419;-53
2023/03/16 02:14:26;;;;;;;;;;;;;;;19.76;42.86;100635.47;7257180;19;154044;-54
2023/03/16 02:16:54;;;;;;;;;;;;;;;19.75;42.73;100652.63;7257219;19;153507;-53
2023/03/16 02:19:26;;;;;;;;;;;;;;;19.74;43.06;100636.94;7255362;19;154198;-54
2023/03/16 02:22:05;;;;;;;;;;;;;;;19.72;43.15;100630.78;7256878;19;153416;-54
2023/03/16 02:24:32;;;;;;;;;;;;;;;19.71;43.07;100631.97;7256921;19;153400;-53
2023/03/16 02:27:20;;;;;;;;;;;;;;;19.70;43.09;100610.66;7256872;19;153622;-54
2023/03/16 02:29:51;;;;;;;;;;;;;;;19.69;43.32;100623.84;7256481;19;154090;-54
2023/03/16 02:32:19;;;;;;;;;;;;;;;19.67;43.32;100628.13;7262359;19;152859;-53
2023/03/16 02:34:46;;;;;;;;;;;;;;;19.65;43.21;100628.41;7256160;19;157403;-54
2023/03/16 02:37:13;;;;;;;;;;;;;;;19.63;43.34;100624.25;7256503;19;153147;-54
2023/03/16 02:39:42;;;;;;;;;;;;;;;19.61;43.57;100607.75;7253680;19;154004;-54
2023/03/16 02:42:12;;;;;;;;;;;;;;;19.58;43.45;100601.94;7253282;19;154224;-55
2023/03/16 02:44:42;;;;;;;;;;;;;;;19.56;43.85;100615.44;7254863;19;154380;-54
2023/03/16 02:47:13;;;;;;;;;;;;;;;19.54;43.86;100612.94;7255649;19;154737;-55
2023/03/16 02:49:42;;;;;;;;;;;;;;;19.53;44.08;100597.28;7249689;19;153883;-54
2023/03/16 02:52:09;;;;;;;;;;;;;;;19.49;43.90;100607.41;7249480;19;153982;-54
2023/03/16 02:54:37;;;;;;;;;;;;;;;19.49;44.19;100599.00;7261122;19;153859;-54
2023/03/16 02:57:03;;;;;;;;;;;;;;;19.46;44.05;100586.47;7252903;19;153551;-54
2023/03/16 02:59:30;;;;;;;;;;;;;;;19.45;43.98;100581.16;7252740;19;154131;-54
2023/03/16 03:01:57;;;;;;;;;;;;;;;19.45;43.99;100592.38;7255758;19;154137;-54
2023/03/16 03:04:24;;;;;;;;;;;;;;;19.42;44.21;100587.38;7253760;19;153933;-54
2023/03/16 03:06:51;;;;;;;;;;;;;;;19.41;44.46;100585.69;7257371;19;154050;-55
2023/03/16 03:09:18;;;;;;;;;;;;;;;19.40;44.72;100582.06;7251240;19;154231;-54
2023/03/16 03:11:45;;;;;;;;;;;;;;;19.38;44.51;100573.16;7255993;19;154453;-53
2023/03/16 03:14:15;;;;;;;;;;;;;;;19.37;44.56;100568.69;7253993;19;151896;-54
2023/03/16 03:16:45;;;;;;;;;;;;;;;19.36;44.41;100567.00;7260396;19;154608;-55
2023/03/16 03:19:13;;;;;;;;;;;;;;;19.33;44.85;100558.41;7253960;19;153941;-54
2023/03/16 03:21:40;;;;;;;;;;;;;;;19.34;44.69;100560.91;7253780;19;153533;-54
2023/03/16 03:24:07;;;;;;;;;;;;;;;19.33;44.52;100561.22;7251987;19;153451;-54
2023/03/16 03:26:36;;;;;;;;;;;;;;;19.32;44.70;100565.97;7256316;19;153703;-53
2023/03/16 03:29:03;;;;;;;;;;;;;;;19.28;45.10;100562.13;7252182;19;153661;-55
2023/03/16 03:31:30;;;;;;;;;;;;;;;19.27;45.30;100559.63;7259093;19;153876;-55
2023/03/16 03:33:57;;;;;;;;;;;;;;;19.27;44.89;100554.03;7255012;19;154727;-54
2023/03/16 03:36:24;;;;;;;;;;;;;;;19.26;45.30;100556.00;7254868;19;153991;-54
2023/03/16 03:38:53;;;;;;;;;;;;;;;19.26;44.91;100552.41;7259220;19;154157;-54
2023/03/16 03:41:21;;;;;;;;;;;;;;;19.23;45.24;100553.00;7253459;19;154061;-54
2023/03/16 03:43:48;;;;;;;;;;;;;;;19.21;45.02;100558.09;7254837;19;153653;-53
2023/03/16 03:46:14;;;;;;;;;;;;;;;19.21;45.32;100552.50;7256121;19;154292;-54
2023/03/16 03:48:41;;;;;;;;;;;;;;;19.19;45.44;100561.19;7253694;19;152365;-54
2023/03/16 03:51:12;;;;;;;;;;;;;;;19.18;45.25;100559.53;7249062;19;154481;-53
2023/03/16 03:53:40;;;;;;;;;;;;;;;19.16;45.57;100553.41;7252725;19;153642;-54
2023/03/16 03:56:06;;;;;;;;;;;;;;;19.15;45.43;100548.94;7251868;19;154516;-54
2023/03/16 03:58:33;;;;;;;;;;;;;;;19.14;45.54;100561.28;7256159;19;153789;-54
2023/03/16 04:01:07;;;;;;;;;;;;;;;19.13;45.81;100554.00;7260451;19;154978;-54
2023/03/16 04:03:34;;;;;;;;;;;;;;;19.13;45.58;100547.56;7254422;19;153729;-54
2023/03/16 04:06:01;;;;;;;;;;;;;;;19.11;45.60;100545.13;7253218;19;154226;-54
2023/03/16 04:08:28;;;;;;;;;;;;;;;19.08;45.75;100549.34;7250833;19;153082;-54
2023/03/16 04:10:55;;;;;;;;;;;;;;;19.08;45.60;100548.50;7253800;19;153238;-54
2023/03/16 04:13:21;;;;;;;;;;;;;;;19.06;45.91;100546.03;7254180;19;152825;-56
2023/03/16 04:15:58;;;;;;;;;;;;;;;19.06;45.81;100554.44;7249739;19;154492;-54
2023/03/16 04:18:24;;;;;;;;;;;;;;;19.05;45.75;100547.16;7253904;19;154210;-54
2023/03/16 04:20:54;;;;;;;;;;;;;;;19.03;46.17;100545.84;7251811;19;153727;-54
2023/03/16 04:23:21;;;;;;;;;;;;;;;19.02;45.88;100539.41;7259207;19;154932;-54
2023/03/16 04:25:47;;;;;;;;;;;;;;;19.00;45.97;100536.06;7253104;19;154591;-54
2023/03/16 04:28:16;;;;;;;;;;;;;;;18.99;45.94;100536.34;7253195;19;154145;-55
2023/03/16 04:30:43;;;;;;;;;;;;;;;18.99;46.42;100541.97;7250836;19;153478;-54
2023/03/16 04:33:10;;;;;;;;;;;;;;;18.99;46.35;100540.00;7254941;19;154172;-53
2023/03/16 04:35:38;;;;;;;;;;;;;;;18.96;46.12;100539.78;7256560;19;154988;-54
2023/03/16 04:38:05;;;;;;;;;;;;;;;18.95;46.32;100538.94;7262897;19;154146;-54
2023/03/16 04:40:32;;;;;;;;;;;;;;;18.94;46.10;100533.69;7257581;19;153672;-55
2023/03/16 04:42:58;;;;;;;;;;;;;;;18.93;46.11;100530.03;7267222;19;153415;-55
2023/03/16 04:45:25;;;;;;;;;;;;;;;18.92;46.23;100538.75;7260252;19;153150;-54
2023/03/16 04:47:52;;;;;;;;;;;;;;;18.91;46.58;100534.28;7257564;19;153162;-55
2023/03/16 04:50:19;;;;;;;;;;;;;;;18.90;46.75;100536.25;7260168;19;153200;-59
2023/03/16 04:52:45;;;;;;;;;;;;;;;18.90;46.37;100535.41;7257888;19;153729;-52
2023/03/16 04:55:12;;;;;;;;;;;;;;;18.87;46.48;100531.25;7257164;19;154085;-54
2023/03/16 04:57:39;;;;;;;;;;;;;;;18.88;46.84;100529.31;7259599;19;153616;-53
2023/03/16 05:00:10;;;;;;;;;;;;;;;18.87;46.86;100525.66;7258186;19;153704;-54
2023/03/16 05:02:37;;;;;;;;;;;;;;;18.90;46.73;100521.41;7255688;19;154130;-54
2023/03/16 05:05:04;;;;;;;;;;;;;;;18.88;46.52;100518.09;7267501;19;153007;-54
2023/03/16 05:07:31;;;;;;;;;;;;;;;18.86;46.45;100521.19;7258252;19;155014;-54
2023/03/16 05:09:58;;;;;;;;;;;;;;;18.84;46.71;100523.50;7259361;19;152602;-54
2023/03/16 05:12:25;;;;;;;;;;;;;;;18.81;46.63;100512.88;7258999;19;155500;-53
2023/03/16 05:14:52;;;;;;;;;;;;;;;18.79;46.61;100514.34;7258445;19;154212;-54
2023/03/16 05:17:19;;;;;;;;;;;;;;;18.82;46.52;100520.16;7258557;19;153098;-54
2023/03/16 05:19:46;;;;;;;;;;;;;;;18.79;46.59;100514.34;7258109;19;152970;-54
2023/03/16 05:22:12;;;;;;;;;;;;;;;18.77;46.75;100511.84;7258263;19;154610;-54
2023/03/16 05:24:40;;;;;;;;;;;;;;;18.78;46.39;100515.47;7258007;19;152575;-54
2023/03/16 05:27:09;;;;;;;;;;;;;;;18.76;46.42;100509.38;7265824;19;152877;-54
2023/03/16 05:29:35;;;;;;;;;;;;;;;18.75;46.47;100507.72;7258936;19;153833;-53
2023/03/16 05:32:02;;;;;;;;;;;;;;;18.73;46.52;100508.00;7258431;19;154164;-53
2023/03/16 05:34:30;;;;;;;;;;;;;;;18.74;46.85;100512.47;7258212;19;154193;-53
2023/03/16 05:36:57;;;;;;;;;;;;;;;18.70;46.57;100503.03;7260472;19;154124;-54
2023/03/16 05:39:25;;;;;;;;;;;;;;;18.71;46.72;100504.69;7257713;19;154722;-54
2023/03/16 05:41:53;;;;;;;;;;;;;;;18.69;46.92;100504.16;7258717;19;153170;-53
2023/03/16 05:44:20;;;;;;;;;;;;;;;18.69;46.59;100506.97;7259833;19;152254;-54
2023/03/16 05:46:47;;;;;;;;;;;;;;;18.67;47.02;100501.66;7258573;19;155251;-53
2023/03/16 05:49:14;;;;;;;;;;;;;;;18.65;47.02;100495.56;7265174;19;153457;-55
2023/03/16 05:51:41;;;;;;;;;;;;;;;18.64;46.84;100499.50;7260322;19;154736;-54
2023/03/16 05:54:08;;;;;;;;;;;;;;;18.64;46.75;100504.25;7256780;19;152593;-54
2023/03/16 05:56:35;;;;;;;;;;;;;;;18.69;46.79;100512.56;7257740;19;154219;-54
2023/03/16 05:59:02;;;;;;;;;;;;;;;18.74;47.19;100503.25;7259189;19;154597;-54
2023/03/16 06:01:29;;;;;;;;;;;;;;;18.86;46.79;100506.38;7255768;19;153341;-55
2023/03/16 06:03:55;;;;;;;;;;;;;;;18.92;47.00;100505.97;7257887;19;153697;-54
2023/03/16 06:06:22;;;;;;;;;;;;;;;18.99;47.33;100495.19;7261990;19;154851;-54
2023/03/16 06:08:49;;;;;;;;;;;;;;;19.03;46.97;100496.22;7257889;19;153452;-54
2023/03/16 06:11:16;;;;;;;;;;;;;;;19.07;47.03;100494.50;7270295;19;154062;-53
2023/03/16 06:13:43;;;;;;;;;;;;;;;19.12;47.28;100495.53;7258957;19;154518;-55
2023/03/16 06:16:12;;;;;;;;;;;;;;;19.15;47.42;100497.72;7258415;19;153960;-54
2023/03/16 06:18:39;;;;;;;;;;;;;;;19.19;46.94;100498.75;7258314;19;154142;-54
2023/03/16 06:21:12;;;;;;;;;;;;;;;19.22;46.84;100496.16;7255899;19;153280;-55
2023/03/16 06:23:39;;;;;;;;;;;;;;;19.27;47.18;100489.63;7256139;19;153150;-55
2023/03/16 06:26:06;;;;;;;;;;;;;;;19.29;47.28;100496.59;7259212;19;152794;-55
2023/03/16 06:28:33;;;;;;;;;;;;;;;19.33;47.25;100489.22;7254623;19;155578;-54
2023/03/16 06:31:06;;;;;;;;;;;;;;;19.36;46.91;100482.97;7259107;19;153581;-54
2023/03/16 06:33:32;;;;;;;;;;;;;;;19.40;46.65;100494.38;7263378;19;153140;-54
2023/03/16 06:36:00;;;;;;;;;;;;;;;19.42;46.98;100490.16;7259261;19;154278;-55
2023/03/16 06:38:28;;;;;;;;;;;;;;;19.45;46.52;100488.72;7257721;19;153053;-55
2023/03/16 06:40:54;;;;;;;;;;;;;;;19.47;46.74;100490.06;7255336;19;153350;-55
2023/03/16 06:43:21;;;;;;;;;;;;;;;19.50;46.52;100492.25;7256419;19;153243;-55
2023/03/16 06:45:48;;;;;;;;;;;;;;;19.52;46.46;100498.38;7258621;19;153191;-55
2023/03/16 06:48:15;;;;;;;;;;;;;;;19.55;46.55;100505.31;7253665;19;155892;-54
2023/03/16 06:50:43;;;;;;;;;;;;;;;19.57;46.39;100505.84;7257930;19;152761;-55
2023/03/16 06:53:10;;;;;;;;;;;;;;;19.57;46.34;100500.25;7264163;19;154238;-55
2023/03/16 06:55:37;;;;;;;;;;;;;;;19.60;45.83;100504.38;7255010;19;154406;-54
2023/03/16 06:58:05;;;;;;;;;;;;;;;19.60;46.04;100496.78;7255609;19;154839;-55
2023/03/16 07:00:32;;;;;;;;;;;;;;;19.63;45.79;100503.75;7255992;19;154177;-56
2023/03/16 07:03:00;;;;;;;;;;;;;;;19.65;46.31;100510.72;7258827;19;153910;-55
2023/03/16 07:05:27;;;;;;;;;;;;;;;19.66;46.26;100508.72;7256046;19;153399;-55
2023/03/16 07:07:54;;;;;;;;;;;;;;;19.66;46.09;100509.56;7255324;19;153655;-55
2023/03/16 07:10:21;;;;;;;;;;;;;;;19.67;45.99;100505.59;7256112;19;153194;-55
2023/03/16 07:12:49;;;;;;;;;;;;;;;19.68;45.65;100504.47;7256848;19;154154;-54
2023/03/16 07:15:16;;;;;;;;;;;;;;;19.69;45.96;100502.50;7264618;19;153390;-54
2023/03/16 07:17:43;;;;;;;;;;;;;;;19.70;46.29;100502.19;7255100;19;155152;-54
2023/03/16 07:20:10;;;;;;;;;;;;;;;19.71;45.80;100494.63;7255240;19;153333;-55
2023/03/16 07:22:38;;;;;;;;;;;;;;;19.71;46.01;100501.06;7256522;19;153565;-55
2023/03/16 07:25:06;;;;;;;;;;;;;;;19.71;45.42;100495.44;7257019;19;153295;-55
2023/03/16 07:27:32;;;;;;;;;;;;;;;19.70;45.65;100479.78;7254569;19;154522;-55
2023/03/16 07:29:59;;;;;;;;;;;;;;;19.72;45.24;100487.84;7254408;19;154083;-56
2023/03/16 07:32:29;;;;;;;;;;;;;;;19.73;45.14;100489.50;7251404;19;154583;-54
2023/03/16 07:34:57;;;;;;;;;;;;;;;19.73;45.38;100481.09;7251925;19;152846;-54
2023/03/16 07:37:25;;;;;;;;;;;;;;;19.75;45.17;100479.66;7265070;19;153078;-54
2023/03/16 07:39:52;;;;;;;;;;;;;;;19.76;45.34;100475.69;7253684;19;154889;-54
2023/03/16 07:42:18;;;;;;;;;;;;;;;19.84;45.27;100465.72;7253978;19;152845;-54
2023/03/16 07:44:45;;;;;;;;;;;;;;;19.86;44.78;100461.44;7254879;19;155309;-54
2023/03/16 07:47:12;;;;;;;;;;;;;;;19.88;45.00;100453.56;7254049;19;152944;-55
2023/03/16 07:49:40;;;;;;;;;;;;;;;19.91;44.67;100466.94;7256266;19;154393;-54
2023/03/16 07:52:12;;;;;;;;;;;;;;;19.97;44.64;100462.03;7254644;19;154644;-54
2023/03/16 07:54:39;;;;;;;;;;;;;;;20.01;44.54;100465.03;7252405;19;155262;-55
2023/03/16 07:57:07;;;;;;;;;;;;;;;20.06;44.35;100462.94;7253950;19;152751;-55
2023/03/16 07:59:34;;;;;;;;;;;;;;;20.12;44.63;100477.69;7263526;19;153627;-54
2023/03/16 08:02:00;;;;;;;;;;;;;;;20.16;44.25;100481.50;7254142;19;151988;-54
2023/03/16 08:04:28;;;;;;;;;;;;;;;20.19;44.07;100483.66;7256602;19;153199;-54
2023/03/16 08:06:59;;;;;;;;;;;;;;;20.22;44.16;100488.63;7255518;19;155197;-55
2023/03/16 08:09:26;;;;;;;;;;;;;;;20.25;44.26;100491.66;7254444;19;154531;-56
2023/03/16 08:11:53;;;;;;;;;;;;;;;20.30;43.74;100490.75;7263799;19;153725;-55
2023/03/16 08:14:20;;;;;;;;;;;;;;;20.35;44.01;100499.03;7260361;19;154332;-55
2023/03/16 08:16:47;;;;;;;;;;;;;;;20.38;43.79;100507.63;7263080;19;154757;-54
2023/03/16 08:19:13;;;;;;;;;;;;;;;20.42;43.67;100505.00;7261366;19;153890;-55
2023/03/16 08:21:41;;;;;;;;;;;;;;;20.45;43.68;100503.53;7269051;19;155150;-55
2023/03/16 08:24:28;;;;;;;;;;;;;;;20.50;43.39;100501.44;7261988;19;153478;-54
2023/03/16 08:26:56;;;;;;;;;;;;;;;20.52;43.22;100501.97;7262080;19;155175;-55
2023/03/16 08:29:24;;;;;;;;;;;;;;;20.54;42.91;100510.88;7263316;19;154555;-55
2023/03/16 08:31:55;;;;;;;;;;;;;;;20.55;42.71;100501.31;7263232;19;154821;-55
2023/03/16 08:34:23;;;;;;;;;;;;;;;20.55;42.75;100494.88;7258711;19;153992;-55
2023/03/16 08:36:49;;;;;;;;;;;;;;;20.53;43.17;100503.63;7266151;19;153413;-55
2023/03/16 08:39:16;;;;;;;;;;;;;;;20.54;42.89;100487.59;7261677;19;153387;-55
2023/03/16 08:41:44;;;;;;;;;;;;;;;20.58;43.22;100495.06;7258071;19;153803;-54
2023/03/16 08:44:11;;;;;;;;;;;;;;;20.61;42.90;100488.81;7263279;19;153917;-55
2023/03/16 08:46:39;;;;;;;;;;;;;;;20.51;42.55;100497.50;7261212;19;155103;-55
2023/03/16 08:49:06;;;;;;;;;;;;;;;20.20;42.80;100491.78;7259377;19;153246;-55
2023/03/16 08:51:34;;;;;;;;;;;;;;;20.23;42.91;100495.91;7260097;19;155391;-55
2023/03/16 08:54:01;;;;;;;;;;;;;;;20.26;43.02;100506.53;7254330;19;156001;-55
2023/03/16 08:56:29;;;;;;;;;;;;;;;20.31;43.28;100500.78;7259834;19;153279;-55
2023/03/16 08:58:56;;;;;;;;;;;;;;;20.32;43.29;100510.88;7263778;19;153784;-54
2023/03/16 09:01:24;;;;;;;;;;;;;;;20.33;43.12;100501.31;7258505;19;154300;-55
2023/03/16 09:03:51;;;;;;;;;;;;;;;20.33;43.19;100502.16;7269089;19;155002;-54
2023/03/16 09:06:18;;;;;;;;;;;;;;;20.34;43.16;100498.19;7260659;19;154117;-55
2023/03/16 09:08:46;;;;;;;;;;;;;;;20.34;43.17;100492.59;7259986;19;154156;-55
2023/03/16 09:11:16;;;;;;;;;;;;;;;20.32;43.14;100486.44;7261774;19;154811;-54
2023/03/16 09:13:43;;;;;;;;;;;;;;;20.31;43.09;100479.19;7260802;19;152614;-55
2023/03/16 09:16:11;;;;;;;;;;;;;;;20.31;42.75;100472.72;7261739;19;154487;-55
2023/03/16 09:18:38;;;;;;;;;;;;;;;20.31;42.75;100478.34;7262059;19;154136;-54
2023/03/16 09:21:12;;;;;;;;;;;;;;;20.31;43.06;100470.75;7257275;19;152511;-55
2023/03/16 09:23:41;;;;;;;;;;;;;;;20.27;42.63;100475.31;7257127;19;153469;-54
2023/03/16 09:26:09;;;;;;;;;;;;;;;20.27;42.65;100477.28;7268511;19;154670;-54
2023/03/16 09:28:37;;;;;;;;;;;;;;;20.25;42.80;100480.44;7259905;19;154852;-55
2023/03/16 09:31:16;;;;;;;;;;;;;;;20.25;42.73;100472.03;7261633;19;154510;-55
2023/03/16 09:33:43;;;;;;;;;;;;;;;20.24;42.75;100484.38;7256633;19;152814;-54
2023/03/16 09:36:12;;;;;;;;;;;;;;;20.24;42.96;100483.56;7260278;19;153433;-55
2023/03/16 09:38:39;;;;;;;;;;;;;;;20.23;42.79;100479.09;7256082;19;153397;-56
2023/03/16 09:41:11;;;;;;;;;;;;;;;20.21;42.62;100484.19;7258916;19;153244;-55
2023/03/16 09:43:38;;;;;;;;;;;;;;;20.19;42.74;100467.69;7261205;19;154244;-55
2023/03/16 09:46:05;;;;;;;;;;;;;;;20.19;43.07;100469.66;7261336;19;154577;-54
2023/03/16 09:48:34;;;;;;;;;;;;;;;20.17;42.82;100463.53;7266343;19;155790;-55
2023/03/16 09:51:18;;;;;;;;;;;;;;;20.16;42.65;100467.47;7259879;19;154031;-55
2023/03/16 09:53:46;;;;;;;;;;;;;;;20.15;43.07;100463.03;7256305;19;153529;-55
2023/03/16 09:56:18;;;;;;;;;;;;;;;20.15;42.70;100469.47;7257054;19;152352;-54
2023/03/16 09:58:45;;;;;;;;;;;;;;;20.11;43.17;100471.25;7257904;19;153103;-54
2023/03/16 10:01:22;;;;;;;;;;;;;;;20.06;42.86;100464.91;7258454;19;154460;-55
2023/03/16 10:03:49;;;;;;;;;;;;;;;20.06;43.05;100467.72;7259659;19;153590;-53
2023/03/16 10:06:16;;;;;;;;;;;;;;;20.05;42.84;100466.91;7260302;19;153645;-55
2023/03/16 10:08:53;;;;;;;;;;;;;;;20.04;43.17;100461.59;7257944;19;153414;-54
2023/03/16 10:11:26;;;;;;;;;;;;;;;20.01;42.97;100457.47;7268712;19;154079;-55
2023/03/16 10:13:55;;;;;;;;;;;;;;;19.98;42.98;100458.94;7257119;19;153194;-55
2023/03/16 10:16:27;;;;;;;;;;;;;;;19.91;43.31;100464.13;7260359;19;153427;-55
2023/03/16 10:19:08;;;;;;;;;;;;;;;19.91;43.54;100452.09;7257793;19;153773;-55
2023/03/16 10:21:38;;;;;;;;;;;;;;;19.85;43.66;100456.16;7259399;19;153485;-55
2023/03/16 10:24:24;;;;;;;;;;;;;;;19.80;43.75;100461.91;7257140;19;153828;-55
2023/03/16 10:26:58;;;;;;;;;;;;;;;19.84;43.36;100451.72;7257666;19;154031;-54
2023/03/16 10:29:29;;;;;;;;;;;;;;;19.81;43.36;100441.94;7257610;19;153996;-54
2023/03/16 10:32:00;;;;;;;;;;;;;;;19.75;43.48;100445.19;7257302;19;153620;-54
2023/03/16 10:34:29;;;;;;;;;;;;;;;19.74;43.51;100440.72;7261226;19;153782;-55
2023/03/16 10:37:01;;;;;;;;;;;;;;;19.71;43.93;100436.59;7257263;19;154278;-55
2023/03/16 10:39:41;;;;;;;;;;;;;;;19.68;43.79;100420.38;7258132;19;154096;-54
2023/03/16 10:42:15;;;;;;;;;;;;;;;19.66;44.09;100416.25;7256697;19;154559;-55
2023/03/16 10:44:43;;;;;;;;;;;;;;;19.70;43.81;100418.09;7255587;19;153905;-54
2023/03/16 10:47:31;;;;;;;;;;;;;;;19.65;43.81;100420.19;7256781;19;153975;-55
2023/03/16 10:50:10;;;;;;;;;;;;;;;19.62;43.88;100416.06;7257655;19;153407;-55
2023/03/16 10:52:39;;;;;;;;;;;;;;;19.58;44.11;100417.81;7257851;19;153488;-56
2023/03/16 10:55:09;;;;;;;;;;;;;;;19.59;43.82;100413.03;7255441;19;154846;-55
2023/03/16 10:57:37;;;;;;;;;;;;;;;19.56;43.94;100396.84;7263705;19;153223;-55
2023/03/16 11:00:09;;;;;;;;;;;;;;;19.55;44.18;100404.44;7256761;19;153294;-55
2023/03/16 11:02:38;;;;;;;;;;;;;;;19.54;43.81;100417.59;7254413;19;153594;-54
2023/03/16 11:05:12;;;;;;;;;;;;;;;19.52;43.88;100405.06;7257730;19;152614;-55
2023/03/16 11:07:48;;;;;;;;;;;;;;;19.49;44.12;100403.72;7251639;19;152511;-54
2023/03/16 11:10:27;;;;;;;;;;;;;;;19.48;43.93;100404.06;7254565;19;153962;-54
2023/03/16 11:13:00;;;;;;;;;;;;;;;19.49;43.74;100397.28;7258036;19;153409;-54
2023/03/16 11:15:35;;;;;;;;;;;;;;;19.49;44.01;100386.91;7255893;19;154691;-55
2023/03/16 11:18:03;;;;;;;;;;;;;;;19.50;43.86;100384.94;7263689;19;154326;-55
2023/03/16 11:20:32;;;;;;;;;;;;;;;19.50;43.73;100387.72;7255371;19;154032;-58
2023/03/16 11:23:00;;;;;;;;;;;;;;;19.46;43.50;100383.91;7252978;19;154215;-54
2023/03/16 11:25:40;;;;;;;;;;;;;;;19.44;43.62;100375.00;7239019;19;153294;-55
2023/03/16 11:28:27;;;;;;;;;;;;;;;19.42;43.58;100372.47;7251200;19;153200;-54
2023/03/16 11:31:04;;;;;;;;;;;;;;;19.47;43.43;100369.59;7254286;19;153491;-53
2023/03/16 11:33:33;;;;;;;;;;;;;;;19.54;43.55;100360.75;7254735;19;152816;-53
2023/03/16 11:36:01;;;;;;;;;;;;;;;19.60;43.36;100365.09;7255507;19;154064;-54
2023/03/16 11:38:30;;;;;;;;;;;;;;;19.69;43.40;100354.78;7253577;19;155456;-54
2023/03/16 11:41:16;;;;;;;;;;;;;;;19.76;42.95;100354.34;7263038;19;153637;-55
2023/03/16 11:43:51;;;;;;;;;;;;;;;19.80;43.09;100350.59;7250289;19;154343;-55
2023/03/16 11:46:30;;;;;;;;;;;;;;;19.85;42.69;100349.66;7254210;19;153833;-55
2023/03/16 11:49:00;;;;;;;;;;;;;;;19.90;42.82;100346.69;7254074;19;152612;-54
2023/03/16 11:51:56;;;;;;;;;;;;;;;19.93;42.68;100343.25;7254225;19;156084;-55
2023/03/16 11:54:34;;;;;;;;;;;;;;;19.97;42.43;100349.88;7251188;19;153098;-55
2023/03/16 11:57:10;;;;;;;;;;;;;;;19.99;42.48;100340.00;7253078;19;153890;-55
2023/03/16 11:59:40;;;;;;;;;;;;;;;20.03;42.32;100348.63;7253397;19;153254;-54
2023/03/16 12:02:27;;;;;;;;;;;;;;;20.05;42.12;100349.09;7253115;19;153898;-55
2023/03/16 12:04:56;;;;;;;;;;;;;;;20.09;42.09;100354.91;7263529;19;154217;-55
2023/03/16 12:07:29;;;;;;;;;;;;;;;20.09;42.51;100350.13;7257158;19;153634;-54
2023/03/16 12:10:00;;;;;;;;;;;;;;;20.11;41.97;100359.06;7255496;19;153743;-54
2023/03/16 12:12:50;;;;;;;;;;;;;;;20.14;42.24;100358.41;7257266;19;153724;-55
2023/03/16 12:15:29;;;;;;;;;;;;;;;20.15;42.12;100362.03;7258154;19;154172;-54
2023/03/16 12:18:01;;;;;;;;;;;;;;;20.17;41.78;100356.97;7257013;19;153986;-55
2023/03/16 12:20:35;;;;;;;;;;;;;;;20.17;42.12;100356.97;7253965;19;152905;-55
2023/03/16 12:23:04;;;;;;;;;;;;;;;20.18;41.84;100350.16;7253559;19;153227;-56
2023/03/16 12:25:35;;;;;;;;;;;;;;;20.19;41.96;100349.03;7254077;19;152589;-54
2023/03/16 12:28:04;;;;;;;;;;;;;;;20.20;41.73;100345.09;7261292;19;153983;-54
2023/03/16 12:30:49;;;;;;;;;;;;;;;20.20;42.01;100345.91;7249009;19;154194;-55
2023/03/16 12:33:19;;;;;;;;;;;;;;;20.21;41.70;100347.56;7252037;19;153528;-55
2023/03/16 12:35:58;;;;;;;;;;;;;;;20.23;42.01;100347.25;7249936;19;153896;-55
2023/03/16 12:38:34;;;;;;;;;;;;;;;20.24;41.62;100337.69;7253661;19;153237;-54